createdAt,value
2024-02-17T00:03:48.703Z,31.20
2024-02-17T00:13:55.263Z,28.40
2024-02-17T00:24:01.653Z,28.20
2024-02-17T00:34:08.189Z,33.10
2024-02-17T00:44:15.018Z,31.30
2024-02-17T00:54:21.761Z,30.00
2024-02-17T01:04:28.246Z,30.80
2024-02-17T01:14:34.694Z,28.00
2024-02-17T01:24:41.122Z,27.40
2024-02-17T01:34:47.627Z,29.30
2024-02-17T01:44:54.300Z,27.80
2024-02-17T01:55:01.347Z,27.90
2024-02-17T02:05:08.361Z,25.30
2024-02-17T02:15:15.500Z,26.20
2024-02-17T02:25:28.685Z,26.60
2024-02-17T02:35:35.170Z,26.50
2024-02-17T02:45:41.641Z,29.60
2024-02-17T02:55:48.049Z,29.40
2024-02-17T03:05:54.462Z,28.00
2024-02-17T03:16:00.864Z,25.10
2024-02-17T03:26:07.726Z,23.40
2024-02-17T03:36:14.288Z,26.50
2024-02-17T03:46:20.881Z,23.30
2024-02-17T03:56:27.786Z,25.70
2024-02-17T04:06:34.920Z,24.80
2024-02-17T04:16:41.371Z,24.10
2024-02-17T04:26:47.873Z,21.90
2024-02-17T04:36:54.300Z,22.70
2024-02-17T04:47:00.849Z,28.10
2024-02-17T04:57:07.351Z,22.50
2024-02-17T05:07:14.699Z,22.30
2024-02-17T05:27:43.591Z,23.10
2024-02-17T05:37:50.024Z,22.20
2024-02-17T05:47:56.437Z,23.60
2024-02-17T05:58:02.823Z,25.30
2024-02-17T06:08:09.441Z,24.40
2024-02-17T06:18:35.110Z,24.40
2024-02-17T06:28:40.588Z,23.05
2024-02-17T06:38:47.255Z,23.90
2024-02-17T06:48:54.543Z,23.90
2024-02-17T06:59:01.083Z,26.30
2024-02-17T07:09:08.673Z,22.30
2024-02-17T07:19:15.262Z,27.80
2024-02-17T07:29:21.905Z,28.00
2024-02-17T07:39:28.357Z,27.70
2024-02-17T07:49:34.995Z,27.70
2024-02-17T07:59:42.900Z,31.00
2024-02-17T08:09:50.971Z,31.80
2024-02-17T08:20:00.264Z,32.50
2024-02-17T08:30:08.718Z,33.90
2024-02-17T08:40:15.166Z,32.10
2024-02-17T08:50:23.072Z,35.40
2024-02-17T09:00:29.631Z,37.40
2024-02-17T09:10:36.106Z,35.00
2024-02-17T09:20:42.486Z,38.80
2024-02-17T09:30:49.851Z,42.60
2024-02-17T09:40:57.017Z,43.40
2024-02-17T09:51:04.638Z,44.20
2024-02-17T10:01:11.099Z,45.20
2024-02-17T10:11:17.522Z,48.00
2024-02-17T10:21:26.407Z,49.90
2024-02-17T10:31:33.102Z,44.90
2024-02-17T10:41:40.192Z,45.90
2024-02-17T10:51:51.809Z,46.20
2024-02-17T11:02:00.022Z,48.30
2024-02-17T11:12:29.776Z,36.70
2024-02-17T11:22:37.537Z,36.60
2024-02-17T11:32:43.910Z,32.40
2024-02-17T11:42:50.336Z,34.80
2024-02-17T11:52:56.886Z,34.00
2024-02-17T12:03:04.501Z,42.00
2024-02-17T12:13:10.904Z,34.10
2024-02-17T12:23:17.446Z,35.40
2024-02-17T12:33:24.001Z,36.90
2024-02-17T12:43:37.611Z,36.80
2024-02-17T12:53:49.209Z,35.80
2024-02-17T13:03:55.770Z,44.80
2024-02-17T13:14:02.288Z,43.70
2024-02-17T13:24:09.065Z,48.40
2024-02-17T13:34:15.703Z,56.00
2024-02-17T13:44:23.050Z,54.20
2024-02-17T13:54:29.482Z,59.60
2024-02-17T14:04:37.668Z,55.40
2024-02-17T14:14:44.675Z,54.00
2024-02-17T14:24:51.135Z,57.50
2024-02-17T14:34:57.954Z,57.90
2024-02-17T14:45:05.802Z,61.40
2024-02-17T14:55:12.759Z,60.90
2024-02-17T15:05:19.374Z,56.60
2024-02-17T15:15:30.238Z,55.40
2024-02-17T15:25:36.846Z,54.00
2024-02-17T15:35:44.749Z,60.70
2024-02-17T15:45:51.231Z,39.50
2024-02-17T15:55:58.978Z,36.70
2024-02-17T16:06:08.964Z,28.10
2024-02-17T16:16:17.517Z,22.00
2024-02-17T16:26:26.076Z,22.00
2024-02-17T16:36:32.615Z,26.30
2024-02-17T16:46:39.181Z,35.60
2024-02-17T16:56:48.344Z,35.00
2024-02-17T17:06:54.801Z,26.20
2024-02-17T17:17:02.339Z,26.60
2024-02-17T17:27:08.983Z,27.50
2024-02-17T17:37:15.544Z,24.50
2024-02-17T17:47:21.973Z,24.10
2024-02-17T17:57:28.388Z,55.70
2024-02-17T18:07:34.918Z,26.60
2024-02-17T18:17:42.415Z,25.40
2024-02-17T18:27:48.855Z,29.60
2024-02-17T18:37:56.369Z,25.20
2024-02-17T18:48:02.799Z,26.00
2024-02-17T18:58:09.518Z,23.70
2024-02-17T19:08:16.042Z,27.30
2024-02-17T19:18:22.475Z,31.30
2024-02-17T19:28:28.928Z,25.50
2024-02-17T19:38:35.337Z,23.50
2024-02-17T19:48:41.913Z,21.40
2024-02-17T19:58:48.473Z,25.50
2024-02-17T20:08:55.132Z,25.20
2024-02-17T20:19:01.604Z,29.10
2024-02-17T20:29:08.057Z,28.00
2024-02-17T20:39:16.016Z,26.30
2024-02-17T20:49:22.557Z,19.60
2024-02-17T20:59:29.028Z,24.40
2024-02-17T21:09:35.456Z,24.90
2024-02-17T21:19:45.484Z,18.10
2024-02-17T21:29:52.315Z,18.70
2024-02-17T21:39:59.043Z,55.80
2024-02-17T21:50:06.105Z,30.60
2024-02-17T22:00:14.111Z,22.20
2024-02-17T22:10:20.610Z,19.50
2024-02-17T22:20:27.649Z,13.80
2024-02-17T22:30:34.236Z,20.40
2024-02-17T22:40:41.078Z,25.10
2024-02-17T22:50:47.622Z,23.10
2024-02-17T23:00:54.154Z,21.70
2024-02-17T23:11:00.671Z,17.30
2024-02-17T23:21:07.117Z,16.60
2024-02-17T23:31:13.851Z,19.70
2024-02-17T23:41:20.259Z,20.50
2024-02-17T23:51:26.043Z,17.45
